Sainte-Blandine, Canada
Current Conditions -  °F | °C
As of 7:00 PM on Wednesday 28 Jan 2015 (Local Time) from CYYY Reporting Station
Scattered Clouds Scattered Clouds  
Wind Chill: -3°   Ceiling: Unl
Heat Index:   Visibility: 30mi
Dew Point: -2°   Wind: 7mph
Humidity: 62%   Direction: 240°WSW
Pressure: 30.08"   Gusts: NA
Location:  48.35°N, 68.45°W
Report Text: CYYY 290000Z 24006KT 30SM SCT100 M13/M19 A3008 RMK AC3 SLP190
Loading
Personal Weather Stations






























Interactive Weather Map New forecast layout! Learn more

10-Day Weather Forecast

Advertisements
Track Severe Weather on mobile